Time;durP1;ratioP1;P1;durP2;ratioP2;P2;SDS_P1;SDS_P2;PMS_P1;PMS_P2;Temp;Humidity;BMP_temperature;BMP_pressure;BME280_temperature;BME280_humidity;BME280_pressure;Samples;Min_cycle;Max_cycle;Signal;HPM_P1;HPM_P2
2022/07/14 00:01:04;;;;;;;1.82;1.70;;;;;;;22.46;100.00;100223.23;1697649;83;21003;-70
2022/07/14 00:03:32;;;;;;;6.67;2.47;;;;;;;22.55;100.00;100215.28;1694951;83;21070;-70
2022/07/14 00:05:59;;;;;;;2.85;2.33;;;;;;;22.58;100.00;100214.95;1710005;83;21487;-70
2022/07/14 00:08:27;;;;;;;3.95;2.47;;;;;;;22.48;100.00;100216.84;1696731;83;21059;-70
2022/07/14 00:10:54;;;;;;;4.80;3.30;;;;;;;22.59;100.00;100215.30;1697704;83;21031;-70
2022/07/14 00:13:21;;;;;;;3.62;2.80;;;;;;;22.40;100.00;100211.07;1708010;83;21001;-70
2022/07/14 00:15:49;;;;;;;3.85;3.22;;;;;;;22.59;100.00;100213.17;1697721;83;21123;-70
2022/07/14 00:18:16;;;;;;;6.80;3.12;;;;;;;22.71;100.00;100213.73;1699250;83;21075;-70
2022/07/14 00:20:43;;;;;;;5.67;3.05;;;;;;;22.90;100.00;100206.16;1696490;83;21027;-70
2022/07/14 00:23:10;;;;;;;5.40;2.75;;;;;;;22.82;100.00;100210.05;1712636;83;21051;-70
2022/07/14 00:25:38;;;;;;;5.28;2.80;;;;;;;22.72;100.00;100214.08;1703316;83;21039;-70
2022/07/14 00:28:05;;;;;;;3.05;2.70;;;;;;;22.78;100.00;100209.53;1714697;83;21056;-70
2022/07/14 00:30:33;;;;;;;4.25;2.47;;;;;;;22.72;100.00;100212.77;1696875;83;21075;-70
2022/07/14 00:33:00;;;;;;;5.05;2.65;;;;;;;22.67;100.00;100215.86;1695336;83;21121;-70
2022/07/14 00:35:28;;;;;;;3.00;2.45;;;;;;;22.63;100.00;100207.11;1694190;83;21051;-70
2022/07/14 00:37:56;;;;;;;4.10;2.70;;;;;;;22.54;100.00;100210.17;1682869;83;21055;-70
2022/07/14 00:40:23;;;;;;;2.60;2.40;;;;;;;22.57;100.00;100198.08;1698988;83;21047;-70
2022/07/14 00:42:51;;;;;;;4.20;2.65;;;;;;;22.59;100.00;100201.38;1708100;83;21012;-70
2022/07/14 00:45:21;;;;;;;2.85;2.60;;;;;;;22.59;100.00;100197.44;1714308;83;21111;-70
2022/07/14 00:47:49;;;;;;;4.97;2.55;;;;;;;22.55;100.00;100191.67;1701251;83;21107;-70
2022/07/14 00:50:18;;;;;;;4.22;2.50;;;;;;;22.51;100.00;100191.64;1694937;83;21084;-70
2022/07/14 00:52:48;;;;;;;4.53;2.92;;;;;;;22.53;100.00;100200.17;1704663;83;21613;-70
2022/07/14 00:55:17;;;;;;;3.92;3.00;;;;;;;22.41;100.00;100194.84;1693531;83;21118;-71
2022/07/14 00:57:51;;;;;;;5.78;3.00;;;;;;;22.28;100.00;100195.70;1696222;83;21078;-71
2022/07/14 01:00:17;;;;;;;3.55;2.98;;;;;;;22.44;100.00;100196.33;1708070;83;21059;-71
2022/07/14 01:02:47;;;;;;;3.20;2.85;;;;;;;22.43;100.00;100188.95;1713325;83;21071;-70
2022/07/14 01:05:17;;;;;;;3.27;2.98;;;;;;;22.43;100.00;100187.64;1702448;83;21034;-70
2022/07/14 01:07:47;;;;;;;4.85;3.50;;;;;;;22.44;100.00;100187.15;1698959;83;21070;-71
2022/07/14 01:10:14;;;;;;;4.10;3.70;;;;;;;23.26;100.00;100182.42;1705374;83;21031;-70
2022/07/14 01:12:49;;;;;;;4.58;3.75;;;;;;;23.42;100.00;100185.58;1707137;83;21052;-70
2022/07/14 01:15:19;;;;;;;5.30;4.15;;;;;;;23.25;100.00;100180.77;1702572;83;21016;-71
2022/07/14 01:17:48;;;;;;;7.45;4.08;;;;;;;24.50;99.70;100172.47;1697242;83;21003;-70
2022/07/14 01:20:16;;;;;;;6.78;4.20;;;;;;;24.23;99.14;100182.32;1696965;83;21056;-71
2022/07/14 01:22:46;;;;;;;5.40;4.40;;;;;;;24.26;99.10;100185.11;1715850;83;21504;-71
2022/07/14 01:25:16;;;;;;;6.22;4.20;;;;;;;24.24;99.06;100184.45;1735914;82;21008;-70
2022/07/14 01:27:44;;;;;;;5.12;4.33;;;;;;;24.22;98.50;100182.48;1703683;83;21031;-70
2022/07/14 01:30:13;;;;;;;6.20;4.00;;;;;;;24.33;98.42;100182.98;1702040;83;21129;-70
2022/07/14 01:32:42;;;;;;;6.05;4.50;;;;;;;24.29;97.90;100175.56;1698337;83;20991;-70
2022/07/14 01:35:10;;;;;;;6.47;4.33;;;;;;;24.33;97.92;100182.98;1708932;83;21090;-70
2022/07/14 01:37:38;;;;;;;6.62;4.45;;;;;;;24.19;98.23;100177.88;1704883;83;21031;-70
2022/07/14 01:40:09;;;;;;;6.33;4.90;;;;;;;23.98;99.95;100176.21;1707312;83;21083;-71
2022/07/14 01:42:37;;;;;;;6.50;4.83;;;;;;;24.17;99.49;100179.85;1704102;83;21059;-70
2022/07/14 01:45:06;;;;;;;5.20;4.35;;;;;;;24.12;98.67;100175.56;1702566;83;21109;-70
2022/07/14 01:47:35;;;;;;;5.00;4.50;;;;;;;24.19;98.30;100179.69;1695684;83;21054;-70
2022/07/14 01:50:03;;;;;;;5.53;4.92;;;;;;;22.91;100.00;100177.14;1699661;83;21102;-70
2022/07/14 01:52:32;;;;;;;6.60;4.92;;;;;;;22.84;100.00;100172.66;1721187;83;21016;-70
2022/07/14 01:54:59;;;;;;;5.03;4.53;;;;;;;22.56;100.00;100173.63;1713774;83;21007;-70
2022/07/14 01:57:26;;;;;;;7.25;4.83;;;;;;;22.61;100.00;100175.81;1708486;83;21082;-70
2022/07/14 01:59:54;;;;;;;5.33;4.58;;;;;;;22.65;100.00;100172.36;1715199;83;21059;-70
2022/07/14 02:02:22;;;;;;;9.05;4.42;;;;;;;22.75;100.00;100172.61;1703685;83;21076;-70
2022/07/14 02:04:49;;;;;;;6.42;4.65;;;;;;;22.77;100.00;100168.03;1707927;83;21137;-70
2022/07/14 02:07:19;;;;;;;5.15;4.58;;;;;;;22.79;100.00;100173.95;1703982;83;21083;-70
2022/07/14 02:12:38;;;;;;;6.40;4.90;;;;;;;22.72;100.00;100182.09;1699140;83;21032;-71
2022/07/14 02:15:09;;;;;;;6.53;5.10;;;;;;;22.79;100.00;100187.57;1707861;83;21116;-71
2022/07/14 02:17:37;;;;;;;5.90;5.30;;;;;;;23.14;100.00;100184.00;1717400;83;21118;-71
2022/07/14 02:20:06;;;;;;;6.28;5.37;;;;;;;24.62;100.00;100183.48;1717491;83;21052;-72
2022/07/14 02:22:33;;;;;;;6.00;5.42;;;;;;;23.23;100.00;100180.91;1713260;83;21571;-72
2022/07/14 02:25:00;;;;;;;5.95;5.35;;;;;;;24.70;98.74;100182.14;1705481;83;21098;-71
2022/07/14 02:27:28;;;;;;;6.58;5.47;;;;;;;23.53;100.00;100189.23;1704168;83;21520;-71
2022/07/14 02:29:55;;;;;;;7.37;5.70;;;;;;;23.15;100.00;100189.57;1709553;83;21088;-71
2022/07/14 02:32:22;;;;;;;7.03;5.55;;;;;;;22.99;100.00;100182.43;1726428;82;21048;-71
2022/07/14 02:34:50;;;;;;;7.47;5.20;;;;;;;22.92;100.00;100187.95;1717226;83;21105;-71
2022/07/14 02:37:17;;;;;;;5.78;5.17;;;;;;;22.97;100.00;100190.95;1717275;83;21094;-72
2022/07/14 02:39:45;;;;;;;6.12;5.53;;;;;;;23.12;100.00;100196.96;1717491;83;21032;-71
2022/07/14 02:42:13;;;;;;;6.00;5.20;;;;;;;22.90;100.00;100192.54;1714045;83;21121;-71
2022/07/14 02:44:40;;;;;;;6.40;5.17;;;;;;;25.05;98.38;100193.23;1701786;83;21011;-71
2022/07/14 02:47:07;;;;;;;6.10;5.47;;;;;;;24.89;95.71;100192.78;1702079;83;21075;-71
2022/07/14 02:49:35;;;;;;;5.72;4.53;;;;;;;25.09;96.21;100191.91;1698615;83;21047;-71
2022/07/14 02:52:02;;;;;;;6.42;5.03;;;;;;;24.83;96.87;100186.37;1699592;83;21148;-71
2022/07/14 02:54:29;;;;;;;5.75;5.10;;;;;;;24.71;97.30;100181.14;1697468;83;21539;-71
2022/07/14 02:56:56;;;;;;;7.55;5.55;;;;;;;24.54;98.42;100194.83;1717400;83;21115;-71
2022/07/14 02:59:25;;;;;;;5.37;4.87;;;;;;;24.59;98.06;100188.09;1708422;83;21093;-71
2022/07/14 03:01:53;;;;;;;6.05;4.85;;;;;;;24.52;98.45;100187.09;1693720;83;21035;-71
2022/07/14 03:04:22;;;;;;;5.50;4.65;;;;;;;24.98;95.08;100187.33;1708409;83;21067;-71
2022/07/14 03:06:50;;;;;;;8.10;5.10;;;;;;;24.96;94.96;100188.00;1696768;83;21050;-71
2022/07/14 03:09:19;;;;;;;5.72;4.80;;;;;;;25.05;94.25;100180.08;1714212;82;21051;-71
2022/07/14 03:11:46;;;;;;;5.25;4.75;;;;;;;24.56;96.19;100177.88;1700523;83;21015;-71
2022/07/14 03:14:13;;;;;;;5.55;5.03;;;;;;;24.92;94.99;100180.59;1710774;83;21055;-71
2022/07/14 03:16:41;;;;;;;6.12;5.00;;;;;;;24.28;99.02;100181.82;1698211;83;21052;-71
2022/07/14 03:19:10;;;;;;;8.00;5.42;;;;;;;24.57;96.34;100180.85;1708470;83;21528;-71
2022/07/14 03:21:37;;;;;;;7.42;5.53;;;;;;;24.70;95.27;100177.70;1706783;83;21147;-71
2022/07/14 03:24:06;;;;;;;7.03;5.58;;;;;;;24.75;94.65;100179.31;1698367;83;21050;-70
2022/07/14 03:26:35;;;;;;;7.28;5.60;;;;;;;24.86;94.86;100182.11;1700082;83;21039;-71
2022/07/14 03:29:03;;;;;;;7.40;5.50;;;;;;;24.50;97.18;100182.99;1695320;83;21147;-71
2022/07/14 03:31:30;;;;;;;6.58;5.85;;;;;;;24.86;95.46;100179.47;1704318;83;21091;-71
2022/07/14 03:33:59;;;;;;;8.35;5.78;;;;;;;25.07;95.22;100182.85;1709893;83;21079;-71
2022/07/14 03:36:27;;;;;;;8.43;6.20;;;;;;;25.13;93.43;100196.66;1712628;83;21041;-71
2022/07/14 03:38:54;;;;;;;7.87;5.75;;;;;;;25.36;92.71;100191.48;1706986;83;21083;-71
2022/07/14 03:41:21;;;;;;;5.83;5.22;;;;;;;23.86;99.67;100201.17;1711410;83;21048;-71
2022/07/14 03:43:49;;;;;;;7.58;5.58;;;;;;;23.60;100.00;100202.89;1705000;83;21011;-71
2022/07/14 03:46:17;;;;;;;5.92;5.42;;;;;;;23.61;100.00;100211.59;1703865;83;21091;-71
2022/07/14 03:48:46;;;;;;;6.05;5.42;;;;;;;23.64;100.00;100211.76;1702835;82;21030;-71
2022/07/14 03:51:14;;;;;;;6.87;5.10;;;;;;;23.69;100.00;100210.80;1697098;83;21218;-71
2022/07/14 03:53:42;;;;;;;8.33;6.67;;;;;;;25.55;96.50;100203.43;1691252;83;21137;-71
2022/07/14 03:56:09;;;;;;;8.03;6.50;;;;;;;25.58;90.50;100200.94;1697619;83;21079;-71
2022/07/14 03:58:38;;;;;;;8.88;6.17;;;;;;;25.34;91.98;100213.73;1708853;83;21039;-71
2022/07/14 04:01:07;;;;;;;7.28;5.97;;;;;;;25.07;94.21;100217.09;1699012;83;21098;-71
2022/07/14 04:03:34;;;;;;;7.45;6.00;;;;;;;24.27;98.32;100221.78;1700189;83;21111;-71
2022/07/14 04:06:01;;;;;;;8.03;6.25;;;;;;;24.28;99.48;100219.96;1716054;83;21543;-70
2022/07/14 04:08:30;;;;;;;7.37;6.20;;;;;;;24.46;97.57;100213.22;1687964;83;21079;-71
2022/07/14 04:11:02;;;;;;;6.78;6.12;;;;;;;24.67;95.94;100214.05;1717261;83;21099;-71
2022/07/14 04:13:32;;;;;;;7.12;6.47;;;;;;;24.46;95.83;100218.48;1708944;83;21045;-71
2022/07/14 04:15:59;;;;;;;8.10;6.47;;;;;;;25.29;94.73;100218.20;1696924;83;21115;-71
2022/07/14 04:18:29;;;;;;;7.83;6.58;;;;;;;24.77;93.06;100221.27;1703516;83;21016;-71
2022/07/14 04:20:57;;;;;;;7.40;6.62;;;;;;;24.75;92.79;100211.41;1707208;83;21000;-71
2022/07/14 04:23:26;;;;;;;7.28;6.55;;;;;;;25.71;89.84;100207.80;1716036;83;21084;-71
2022/07/14 04:25:56;;;;;;;8.55;6.95;;;;;;;24.78;93.19;100205.31;1703245;83;21004;-71
2022/07/14 04:28:25;;;;;;;8.25;7.45;;;;;;;24.87;92.93;100203.48;1703656;83;21562;-71
2022/07/14 04:30:52;;;;;;;8.03;6.90;;;;;;;24.96;93.29;100206.94;1706334;83;21050;-71
2022/07/14 04:33:21;;;;;;;8.75;7.30;;;;;;;24.89;93.42;100203.31;1705429;83;21067;-71
2022/07/14 04:35:51;;;;;;;8.75;7.40;;;;;;;24.98;94.04;100211.53;1712063;83;21012;-68
2022/07/14 04:38:19;;;;;;;9.65;6.92;;;;;;;25.26;91.28;100204.04;1715955;83;21043;-68
2022/07/14 04:40:53;;;;;;;7.37;6.67;;;;;;;25.33;90.81;100202.38;1715229;83;21046;-70
2022/07/14 04:43:21;;;;;;;8.35;7.45;;;;;;;25.63;90.55;100205.21;1700121;83;21044;-70
2022/07/14 04:45:50;;;;;;;9.53;7.72;;;;;;;25.46;89.47;100203.13;1702238;82;21134;-70
2022/07/14 04:48:17;;;;;;;8.55;7.78;;;;;;;25.33;89.04;100207.65;1689930;83;21099;-70
2022/07/14 04:53:30;;;;;;;8.50;7.70;;;;;;;25.29;90.43;100212.12;1697506;83;21059;-71
2022/07/14 04:55:59;;;;;;;8.08;7.28;;;;;;;25.11;89.71;100215.76;1696030;83;21053;-70
2022/07/14 04:58:35;;;;;;;8.23;7.42;;;;;;;25.22;89.75;100218.55;1701468;83;21069;-70
2022/07/14 05:01:03;;;;;;;8.70;7.35;;;;;;;25.38;89.20;100223.78;1704818;83;21031;-70
2022/07/14 05:03:32;;;;;;;7.83;7.00;;;;;;;25.35;89.15;100224.11;1703124;83;21095;-70
2022/07/14 05:06:01;;;;;;;7.15;6.53;;;;;;;25.45;89.12;100227.86;1717334;82;21024;-71
2022/07/14 05:08:28;;;;;;;8.30;6.80;;;;;;;25.44;88.32;100227.52;1732240;81;21023;-70
2022/07/14 05:10:55;;;;;;;10.13;7.08;;;;;;;27.14;80.49;100230.05;1730888;81;21027;-70
2022/07/14 05:13:23;;;;;;;8.10;6.25;;;;;;;27.02;79.87;100231.52;1727379;82;21014;-70
2022/07/14 05:15:53;;;;;;;9.73;7.03;;;;;;;27.22;78.87;100232.60;1733313;81;21000;-71
2022/07/14 05:18:21;;;;;;;7.85;7.15;;;;;;;27.33;77.92;100229.54;1685494;82;21021;-70
2022/07/14 05:20:50;;;;;;;8.85;7.42;;;;;;;26.59;83.66;100233.42;1717887;81;21475;-71
2022/07/14 05:23:17;;;;;;;8.08;7.10;;;;;;;25.50;85.98;100240.01;1722663;81;21052;-70
2022/07/14 05:25:44;;;;;;;11.50;7.22;;;;;;;25.31;88.22;100235.98;1723745;81;21011;-71
2022/07/14 05:28:11;;;;;;;9.30;7.33;;;;;;;25.30;88.76;100238.78;1720402;82;21072;-70
2022/07/14 05:30:41;;;;;;;9.98;7.00;;;;;;;25.33;88.51;100237.14;1738015;82;21507;-70
2022/07/14 05:33:09;;;;;;;9.30;6.95;;;;;;;25.13;88.78;100234.03;1730941;81;21011;-69
2022/07/14 05:35:38;;;;;;;9.05;6.55;;;;;;;25.37;88.39;100235.30;1720622;82;21036;-69
2022/07/14 05:38:06;;;;;;;9.83;7.10;;;;;;;25.74;87.50;100231.67;1714488;82;21087;-69
2022/07/14 05:40:34;;;;;;;8.75;6.72;;;;;;;27.41;82.26;100224.63;1714241;82;21118;-69
2022/07/14 05:43:02;;;;;;;7.22;6.45;;;;;;;28.35;75.31;100239.70;1712717;82;21051;-69
2022/07/14 05:45:29;;;;;;;7.67;6.83;;;;;;;28.52;73.54;100232.32;1715598;81;21056;-70
2022/07/14 05:47:56;;;;;;;7.37;6.67;;;;;;;28.33;73.26;100235.09;1725229;81;21852;-70
2022/07/14 05:50:25;;;;;;;8.40;6.70;;;;;;;27.00;75.86;100238.30;1723213;82;21052;-70
2022/07/14 05:52:52;;;;;;;9.13;6.45;;;;;;;25.92;82.31;100240.16;1731298;81;21031;-69
2022/07/14 05:55:21;;;;;;;8.90;6.25;;;;;;;25.79;83.06;100234.59;1729045;82;21082;-70
2022/07/14 05:57:49;;;;;;;6.85;6.22;;;;;;;26.28;82.90;100235.63;1724862;81;21158;-70
2022/07/14 06:00:16;;;;;;;6.70;5.62;;;;;;;26.74;82.17;100234.77;1731210;81;21065;-71
2022/07/14 06:02:45;;;;;;;7.80;5.90;;;;;;;26.68;80.16;100236.80;1724891;81;21063;-69
2022/07/14 06:05:14;;;;;;;6.95;5.37;;;;;;;26.56;80.21;100239.86;1724879;81;21479;-71
2022/07/14 06:07:41;;;;;;;8.73;5.10;;;;;;;26.33;80.80;100241.69;1717215;81;21606;-70
2022/07/14 06:10:11;;;;;;;7.42;4.80;;;;;;;26.28;82.40;100247.51;1719223;81;21150;-71
2022/07/14 06:12:38;;;;;;;7.05;4.85;;;;;;;26.20;80.37;100240.97;1720581;81;21063;-70
2022/07/14 06:15:07;;;;;;;5.35;4.00;;;;;;;26.02;80.65;100241.25;1723328;82;21879;-70
2022/07/14 06:17:35;;;;;;;5.45;4.28;;;;;;;26.04;78.92;100236.63;1717389;82;20988;-70
2022/07/14 06:20:09;;;;;;;4.53;4.10;;;;;;;26.33;77.22;100235.09;1713475;81;21051;-70
2022/07/14 06:22:36;;;;;;;5.33;4.47;;;;;;;26.56;77.39;100237.22;1725998;80;21075;-70
2022/07/14 06:25:06;;;;;;;6.45;4.42;;;;;;;26.84;76.95;100231.36;1724667;81;21074;-70
2022/07/14 06:27:34;;;;;;;6.95;4.28;;;;;;;27.03;77.12;100233.14;1726400;82;20999;-71
2022/07/14 06:30:07;;;;;;;4.80;4.30;;;;;;;27.11;76.10;100229.08;1662217;85;21079;-70
2022/07/14 06:32:40;;;;;;;6.42;5.00;;;;;;;27.22;75.54;100236.56;1729412;81;21024;-70
2022/07/14 06:35:11;;;;;;;4.70;4.00;;;;;;;28.77;73.39;100227.39;1717563;82;21028;-70
2022/07/14 06:37:39;;;;;;;4.35;3.60;;;;;;;29.37;67.30;100233.06;1719306;82;21514;-69
2022/07/14 06:40:08;;;;;;;3.92;3.33;;;;;;;27.56;69.66;100237.84;1721174;83;21089;-69
2022/07/14 06:42:36;;;;;;;3.80;3.50;;;;;;;27.29;70.70;100229.59;1720450;83;21538;-70
2022/07/14 06:45:15;;;;;;;5.83;3.40;;;;;;;26.93;71.61;100227.64;1719608;82;21036;-70
2022/07/14 06:47:43;;;;;;;3.95;3.55;;;;;;;26.98;72.89;100227.91;1717255;82;21064;-70
2022/07/14 06:50:11;;;;;;;5.17;3.70;;;;;;;26.88;72.25;100231.31;1714200;81;21038;-70
2022/07/14 06:52:37;;;;;;;4.85;3.30;;;;;;;27.47;71.28;100231.82;1721399;81;21053;-70
2022/07/14 06:55:06;;;;;;;3.45;3.12;;;;;;;27.78;70.53;100238.20;1722737;82;21048;-71
2022/07/14 06:57:33;;;;;;;4.08;3.58;;;;;;;27.34;70.29;100242.25;1723129;82;21078;-70
2022/07/14 07:00:07;;;;;;;4.90;3.30;;;;;;;26.99;70.58;100251.20;1735000;81;21602;-70
2022/07/14 07:02:35;;;;;;;3.70;3.40;;;;;;;26.91;70.54;100247.33;1732273;81;21166;-70
2022/07/14 07:08:00;;;;;;;5.28;3.50;;;;;;;27.06;71.73;100249.97;1707410;83;21553;-71
2022/07/14 07:10:28;;;;;;;3.47;3.17;;;;;;;26.86;71.85;100247.84;1700875;83;21064;-70
2022/07/14 07:12:57;;;;;;;4.45;3.20;;;;;;;26.77;71.77;100255.03;1709758;83;21638;-70
2022/07/14 07:15:25;;;;;;;4.10;3.00;;;;;;;26.89;70.51;100261.21;1700668;83;21038;-70
2022/07/14 07:17:52;;;;;;;4.53;3.47;;;;;;;26.80;71.45;100257.00;1714532;83;21600;-70
2022/07/14 07:20:22;;;;;;;6.90;3.77;;;;;;;26.98;71.80;100262.24;1715318;82;21728;-70
2022/07/14 07:22:50;;;;;;;3.65;3.35;;;;;;;27.06;70.79;100265.31;1701473;83;21027;-70
2022/07/14 07:25:17;;;;;;;9.65;3.80;;;;;;;27.05;71.47;100267.64;1698880;83;21051;-70
2022/07/14 07:27:44;;;;;;;3.70;3.30;;;;;;;27.30;70.30;100263.44;1697190;83;21030;-70
2022/07/14 07:30:11;;;;;;;4.62;3.20;;;;;;;27.52;69.50;100270.44;1722721;82;21016;-71
2022/07/14 07:32:39;;;;;;;4.37;3.20;;;;;;;27.49;68.97;100268.66;1733236;81;21019;-71
2022/07/14 07:35:08;;;;;;;3.42;3.12;;;;;;;26.92;69.38;100267.44;1729030;81;21614;-71
2022/07/14 07:37:37;;;;;;;3.85;3.05;;;;;;;27.10;70.25;100273.70;1732274;81;21052;-71
2022/07/14 07:40:06;;;;;;;7.17;3.10;;;;;;;27.16;70.62;100274.30;1703337;81;21133;-70
2022/07/14 07:42:33;;;;;;;3.15;2.70;;;;;;;27.28;69.79;100263.61;1714085;81;21444;-70
2022/07/14 07:45:00;;;;;;;3.02;2.52;;;;;;;27.46;68.84;100267.20;1723305;81;20997;-70
2022/07/14 07:47:29;;;;;;;3.75;3.02;;;;;;;27.80;68.35;100266.27;1702990;81;21091;-71
2022/07/14 07:49:56;;;;;;;4.33;3.00;;;;;;;27.82;66.83;100270.87;1720333;82;21122;-70
2022/07/14 07:52:23;;;;;;;4.65;2.90;;;;;;;28.04;67.35;100265.14;1726566;82;21024;-71
2022/07/14 07:54:50;;;;;;;4.53;3.02;;;;;;;28.61;65.28;100262.96;1716288;82;21527;-71
2022/07/14 07:57:18;;;;;;;3.60;2.30;;;;;;;29.21;65.38;100259.91;1715288;81;21119;-70
2022/07/14 07:59:49;;;;;;;3.95;2.70;;;;;;;29.30;62.68;100264.02;1716095;81;21047;-71
2022/07/14 08:02:17;;;;;;;4.10;2.50;;;;;;;29.16;64.27;100267.13;1722464;82;21047;-71
2022/07/14 08:04:44;;;;;;;5.08;2.75;;;;;;;28.64;63.45;100271.83;1698250;83;21019;-71
2022/07/14 08:07:12;;;;;;;2.62;2.42;;;;;;;28.17;64.62;100269.25;1704295;82;21084;-70
2022/07/14 08:09:40;;;;;;;3.20;2.90;;;;;;;27.94;66.14;100270.25;1726517;81;21597;-70
2022/07/14 08:12:07;;;;;;;4.15;2.72;;;;;;;27.32;66.37;100283.39;1748044;80;21083;-70
2022/07/14 08:14:51;;;;;;;3.12;2.80;;;;;;;26.81;67.56;100284.55;1725655;81;21030;-70
2022/07/14 08:17:21;;;;;;;2.70;2.50;;;;;;;26.62;67.56;100288.49;1717884;81;21086;-70
2022/07/14 08:19:49;;;;;;;2.60;2.40;;;;;;;26.68;67.03;100271.13;1723083;83;21466;-71
2022/07/14 08:22:24;;;;;;;3.72;2.50;;;;;;;26.69;67.18;100280.20;1720738;83;21471;-70
2022/07/14 08:24:54;;;;;;;2.50;2.30;;;;;;;26.69;66.35;100288.63;1717830;82;21003;-70
2022/07/14 08:27:22;;;;;;;2.55;2.35;;;;;;;26.98;65.77;100288.66;1720411;82;21003;-70
2022/07/14 08:29:51;;;;;;;3.33;2.22;;;;;;;27.26;65.47;100295.20;1719057;82;21076;-70
2022/07/14 08:32:39;;;;;;;6.15;2.20;;;;;;;27.50;65.02;100288.31;1721429;81;21665;-69
2022/07/14 08:35:11;;;;;;;2.55;2.20;;;;;;;28.13;64.17;100286.52;1740238;81;21015;-71
2022/07/14 08:37:39;;;;;;;2.67;2.10;;;;;;;28.83;62.35;100292.84;1732276;81;21103;-71
2022/07/14 08:40:12;;;;;;;2.25;2.10;;;;;;;28.76;60.91;100301.27;1733935;81;21051;-71
2022/07/14 08:42:46;;;;;;;2.92;2.10;;;;;;;28.80;60.49;100286.62;1737754;81;21058;-71
2022/07/14 08:45:18;;;;;;;2.77;2.15;;;;;;;28.09;62.19;100284.74;1744983;81;21111;-71
2022/07/14 08:47:47;;;;;;;7.33;2.58;;;;;;;27.29;65.96;100298.78;1748466;81;21028;-71
2022/07/14 08:50:18;;;;;;;3.15;2.47;;;;;;;27.65;67.26;100301.50;1748514;82;21098;-71
2022/07/14 08:52:47;;;;;;;3.22;2.58;;;;;;;27.46;68.53;100304.22;1744468;81;20996;-70
2022/07/14 08:55:18;;;;;;;6.75;3.02;;;;;;;27.46;68.53;100304.22;1746504;81;21051;-70
2022/07/14 08:57:45;;;;;;;5.55;2.83;;;;;;;27.61;68.79;100313.96;1742417;81;21063;-70
2022/07/14 09:00:16;;;;;;;6.15;3.10;;;;;;;27.46;68.50;100316.11;1741578;81;21204;-70
2022/07/14 09:02:54;;;;;;;4.22;3.33;;;;;;;26.97;71.25;100316.09;1738182;81;21016;-70
2022/07/14 09:05:22;;;;;;;3.98;3.00;;;;;;;27.52;71.05;100317.22;1734511;81;21023;-70
2022/07/14 09:07:56;;;;;;;6.12;3.35;;;;;;;28.21;67.15;100307.57;1738522;81;21024;-70
2022/07/14 09:10:27;;;;;;;4.87;3.10;;;;;;;28.19;66.61;100320.17;1742764;82;21051;-70
2022/07/14 09:13:22;;;;;;;4.05;2.95;;;;;;;28.37;66.92;100326.36;1733857;81;20987;-70
2022/07/14 09:15:51;;;;;;;6.95;3.20;;;;;;;28.28;67.65;100335.42;1734118;81;21047;-70
2022/07/14 09:18:28;;;;;;;8.83;4.03;;;;;;;28.22;67.29;100336.17;1714260;81;21015;-69
2022/07/14 09:20:58;;;;;;;5.08;3.25;;;;;;;27.05;69.22;100333.70;1743821;81;21075;-69
2022/07/14 09:23:32;;;;;;;6.95;3.47;;;;;;;26.93;69.88;100343.87;1737500;81;21571;-70
2022/07/14 09:26:19;;;;;;;;;;;;;;;28.51;65.52;100353.31;1738106;81;21135;-70
2022/07/14 09:28:50;;;;;;;8.43;6.12;;;;;;;28.28;67.45;100355.27;1741348;81;20135;-70
2022/07/14 09:31:28;;;;;;;7.90;5.47;;;;;;;28.06;71.38;100356.58;1747505;80;21534;-71
2022/07/14 09:33:58;;;;;;;12.95;9.80;;;;;;;27.53;72.10;100367.24;1752422;81;21070;-70
2022/07/14 09:36:31;;;;;;;15.63;9.28;;;;;;;27.48;72.21;100364.34;1711566;82;21538;-70
2022/07/14 09:39:05;;;;;;;11.73;8.58;;;;;;;27.68;72.54;100365.94;1719927;82;21040;-79
2022/07/14 09:41:54;;;;;;;7.87;5.65;;;;;;;26.30;75.62;100365.58;1719952;82;21026;-81
2022/07/14 09:44:23;;;;;;;8.73;3.60;;;;;;;28.48;71.49;100366.08;1721059;82;21539;-80
2022/07/14 09:46:57;;;;;;;7.47;3.12;;;;;;;29.32;69.62;100372.02;1721540;82;22793;-81
2022/07/14 09:49:28;;;;;;;3.87;2.80;;;;;;;29.82;67.35;100367.95;1716191;83;21539;-82
2022/07/14 09:52:02;;;;;;;8.03;2.40;;;;;;;30.13;65.03;100370.09;1717254;83;21099;-82
2022/07/14 09:54:45;;;;;;;4.87;2.20;;;;;;;30.51;64.63;100366.95;1723315;83;21035;-81
2022/07/14 09:57:21;;;;;;;3.25;2.12;;;;;;;30.67;63.05;100378.52;1722990;82;21728;-81
2022/07/14 09:59:55;;;;;;;2.17;2.02;;;;;;;30.59;61.52;100366.76;1721543;83;21071;-82
2022/07/14 10:02:29;;;;;;;1.98;1.87;;;;;;;30.22;59.05;100372.08;1722399;83;21091;-82
2022/07/14 10:05:02;;;;;;;3.45;1.70;;;;;;;30.83;58.78;100369.33;1721560;83;21045;-81
2022/07/14 10:07:36;;;;;;;2.98;1.70;;;;;;;31.27;56.07;100373.23;1720935;83;21018;-80
2022/07/14 10:10:11;;;;;;;3.22;1.95;;;;;;;31.87;55.96;100371.73;1720332;82;21074;-82
2022/07/14 10:12:41;;;;;;;2.02;1.80;;;;;;;31.71;56.38;100370.88;1726449;82;22605;-82
2022/07/14 10:15:13;;;;;;;3.17;1.70;;;;;;;31.20;55.53;100373.73;1723535;82;21118;-82
2022/07/14 10:17:42;;;;;;;2.85;1.90;;;;;;;30.74;56.38;100378.55;1723784;81;21048;-81
2022/07/14 10:20:13;;;;;;;2.83;2.05;;;;;;;31.01;57.37;100381.23;1757093;81;21046;-83
2022/07/14 10:22:41;;;;;;;2.25;2.08;;;;;;;30.13;57.22;100373.59;1736266;81;21011;-82
2022/07/14 10:25:10;;;;;;;3.98;2.20;;;;;;;30.44;55.65;100378.91;1757246;80;21020;-83
2022/07/14 10:27:43;;;;;;;3.62;2.20;;;;;;;30.78;56.08;100381.10;1758941;80;21029;-82
2022/07/14 10:30:11;;;;;;;9.43;2.60;;;;;;;30.93;55.61;100380.41;1727202;82;21029;-80
2022/07/14 10:33:10;;;;;;;6.37;2.60;;;;;;;30.33;55.49;100379.48;1735209;81;21175;-81
2022/07/14 10:35:48;;;;;;;2.27;1.75;;;;;;;30.68;54.31;100394.78;1730524;81;21175;-81
2022/07/14 10:38:56;;;;;;;3.22;2.10;;;;;;;29.81;54.78;100387.55;1744663;81;21085;-81
2022/07/14 10:41:43;;;;;;;1.90;1.62;;;;;;;29.33;54.91;100402.84;1733598;81;21054;-80
2022/07/14 10:44:27;;;;;;;2.47;1.55;;;;;;;29.33;54.91;100402.84;1735541;81;21096;-81
2022/07/14 10:47:16;;;;;;;1.50;1.40;;;;;;;28.69;55.58;100400.55;1717879;81;21098;-81
2022/07/14 10:50:12;;;;;;;4.72;1.65;;;;;;;28.84;55.04;100401.80;1740486;81;20996;-79
2022/07/14 10:52:56;;;;;;;1.70;1.60;;;;;;;29.01;55.76;100402.86;1675772;81;21131;-82
2022/07/14 10:55:29;;;;;;;1.80;1.55;;;;;;;29.26;55.06;100400.14;1710221;82;21023;-80
2022/07/14 10:58:06;;;;;;;2.65;1.40;;;;;;;29.03;55.16;100392.89;1721296;83;21110;-81
2022/07/14 11:00:47;;;;;;;1.98;1.37;;;;;;;28.59;56.26;100391.26;1721098;82;21068;-80
2022/07/14 11:03:25;;;;;;;1.82;1.50;;;;;;;29.31;54.78;100391.60;1724778;81;21041;-79
2022/07/14 11:06:08;;;;;;;1.57;1.40;;;;;;;29.29;54.81;100394.44;1725172;82;21077;-82
2022/07/14 11:08:41;;;;;;;1.50;1.47;;;;;;;29.20;54.46;100396.94;1721508;82;21033;-80
2022/07/14 11:11:18;;;;;;;1.72;1.60;;;;;;;29.14;55.51;100392.41;1759188;81;21012;-82
2022/07/14 11:14:05;;;;;;;2.50;1.70;;;;;;;29.82;55.27;100386.52;1757429;81;20972;-80
2022/07/14 11:16:50;;;;;;;2.75;1.67;;;;;;;30.44;55.61;100383.41;1736560;81;21090;-81
2022/07/14 11:19:30;;;;;;;1.77;1.67;;;;;;;30.47;54.80;100385.64;1734487;80;21055;-81
2022/07/14 11:22:19;;;;;;;1.98;1.87;;;;;;;30.27;53.38;100380.25;1745216;81;21138;-79
2022/07/14 11:24:56;;;;;;;2.98;2.20;;;;;;;30.62;54.41;100384.97;1747122;80;21045;-81
2022/07/14 11:27:34;;;;;;;2.62;2.00;;;;;;;30.16;54.73;100385.64;1730610;81;21140;-82
2022/07/14 11:30:28;;;;;;;2.20;2.00;;;;;;;29.91;55.05;100384.02;1671840;82;21058;-81
2022/07/14 11:33:00;;;;;;;;;;;;;;;30.12;54.54;100377.77;1738045;81;21075;-82
2022/07/14 11:38:33;;;;;;;2.42;2.20;;;;;;;31.35;53.92;100373.53;1705677;83;21537;-81
2022/07/14 11:41:02;;;;;;;4.40;2.30;;;;;;;31.18;53.43;100382.95;1725404;81;21034;-80
2022/07/14 11:43:40;;;;;;;2.50;2.30;;;;;;;31.53;52.98;100378.23;1761928;81;20997;-81
2022/07/14 11:46:11;;;;;;;5.97;2.50;;;;;;;31.94;52.24;100375.20;1725482;81;21703;-80
2022/07/14 11:48:57;;;;;;;2.40;2.20;;;;;;;31.45;53.20;100381.08;1726386;81;21057;-81
2022/07/14 11:51:29;;;;;;;2.65;2.08;;;;;;;31.78;51.91;100379.67;1725386;81;21076;-82